sensor_id;sensor_type;location;lat;lon;timestamp;temperature;humidity
7016;DHT22;3548;48.402;9.990;2022-12-11T18:18:20;-1.20;99.90
7016;DHT22;3548;48.402;9.990;2022-12-11T18:20:47;-1.50;99.90
7016;DHT22;3548;48.402;9.990;2022-12-11T18:23:13;-1.60;99.90
7016;DHT22;3548;48.402;9.990;2022-12-11T18:25:44;-1.60;99.90
7016;DHT22;3548;48.402;9.990;2022-12-11T18:28:09;-1.60;99.90
7016;DHT22;3548;48.402;9.990;2022-12-11T18:30:36;-1.60;99.90
7016;DHT22;3548;48.402;9.990;2022-12-11T18:33:01;-1.60;99.90
7016;DHT22;3548;48.402;9.990;2022-12-11T18:35:27;-1.60;99.90
7016;DHT22;3548;48.402;9.990;2022-12-11T18:37:54;-1.60;99.90
7016;DHT22;3548;48.402;9.990;2022-12-11T18:40:20;-1.50;99.90
7016;DHT22;3548;48.402;9.990;2022-12-11T18:42:45;-1.50;99.90
7016;DHT22;3548;48.402;9.990;2022-12-11T18:45:11;-1.60;99.90
7016;DHT22;3548;48.402;9.990;2022-12-11T18:47:37;-1.60;99.90
7016;DHT22;3548;48.402;9.990;2022-12-11T18:50:04;-1.60;99.90
7016;DHT22;3548;48.402;9.990;2022-12-11T18:52:30;-1.70;99.90
7016;DHT22;3548;48.402;9.990;2022-12-11T18:54:55;-1.80;99.90
7016;DHT22;3548;48.402;9.990;2022-12-11T18:57:21;-1.80;99.90
7016;DHT22;3548;48.402;9.990;2022-12-11T18:59:50;-1.80;99.90
7016;DHT22;3548;48.402;9.990;2022-12-11T19:02:17;-1.90;99.90
7016;DHT22;3548;48.402;9.990;2022-12-11T19:04:43;-1.90;99.90
7016;DHT22;3548;48.402;9.990;2022-12-11T19:07:09;-2.00;99.90
7016;DHT22;3548;48.402;9.990;2022-12-11T19:09:35;-2.00;99.90
7016;DHT22;3548;48.402;9.990;2022-12-11T19:12:01;-2.00;99.90
7016;DHT22;3548;48.402;9.990;2022-12-11T19:14:27;-2.10;99.90
7016;DHT22;3548;48.402;9.990;2022-12-11T19:16:53;-2.10;99.90
7016;DHT22;3548;48.402;9.990;2022-12-11T19:19:20;-2.10;99.90
7016;DHT22;3548;48.402;9.990;2022-12-11T19:21:46;-2.10;99.90
7016;DHT22;3548;48.402;9.990;2022-12-11T19:24:20;-2.20;99.90
7016;DHT22;3548;48.402;9.990;2022-12-11T19:26:46;-2.10;99.90
7016;DHT22;3548;48.402;9.990;2022-12-11T19:29:22;-2.10;99.90
7016;DHT22;3548;48.402;9.990;2022-12-11T19:31:48;-2.10;99.90
7016;DHT22;3548;48.402;9.990;2022-12-11T19:34:14;-2.10;99.90
7016;DHT22;3548;48.402;9.990;2022-12-11T19:36:40;-2.20;99.90
7016;DHT22;3548;48.402;9.990;2022-12-11T19:39:05;-2.20;99.90
7016;DHT22;3548;48.402;9.990;2022-12-11T19:41:31;-2.20;99.90
7016;DHT22;3548;48.402;9.990;2022-12-11T19:44:02;-2.20;99.90
7016;DHT22;3548;48.402;9.990;2022-12-11T19:46:28;-2.20;99.90
7016;DHT22;3548;48.402;9.990;2022-12-11T19:48:55;-2.30;99.90
7016;DHT22;3548;48.402;9.990;2022-12-11T19:51:27;-2.40;99.90
7016;DHT22;3548;48.402;9.990;2022-12-11T19:53:53;-2.40;99.90
7016;DHT22;3548;48.402;9.990;2022-12-11T19:56:19;-2.40;99.90
7016;DHT22;3548;48.402;9.990;2022-12-11T19:58:45;-2.50;99.90
7016;DHT22;3548;48.402;9.990;2022-12-11T20:01:24;-2.50;99.90
7016;DHT22;3548;48.402;9.990;2022-12-11T20:03:55;-2.50;99.90
7016;DHT22;3548;48.402;9.990;2022-12-11T20:06:22;-2.60;99.90
7016;DHT22;3548;48.402;9.990;2022-12-11T20:08:48;-2.60;99.90
7016;DHT22;3548;48.402;9.990;2022-12-11T20:11:15;-2.60;99.90
7016;DHT22;3548;48.402;9.990;2022-12-11T20:13:41;-2.70;99.90
7016;DHT22;3548;48.402;9.990;2022-12-11T20:16:08;-2.80;99.90
7016;DHT22;3548;48.402;9.990;2022-12-11T20:18:36;-2.80;99.90
7016;DHT22;3548;48.402;9.990;2022-12-11T20:21:05;-2.80;99.90
7016;DHT22;3548;48.402;9.990;2022-12-11T20:23:31;-2.90;99.90
7016;DHT22;3548;48.402;9.990;2022-12-11T20:25:57;-2.90;99.90
7016;DHT22;3548;48.402;9.990;2022-12-11T20:28:23;-2.90;99.90
7016;DHT22;3548;48.402;9.990;2022-12-11T20:30:49;-2.90;99.90
7016;DHT22;3548;48.402;9.990;2022-12-11T20:33:16;-2.90;99.90
7016;DHT22;3548;48.402;9.990;2022-12-11T20:35:42;-2.80;99.90
7016;DHT22;3548;48.402;9.990;2022-12-11T20:38:07;-2.90;99.90
7016;DHT22;3548;48.402;9.990;2022-12-11T20:40:33;-3.00;99.90
7016;DHT22;3548;48.402;9.990;2022-12-11T20:42:59;-3.00;99.90
7016;DHT22;3548;48.402;9.990;2022-12-11T20:45:24;-3.00;99.90
7016;DHT22;3548;48.402;9.990;2022-12-11T20:47:50;-3.10;99.90
7016;DHT22;3548;48.402;9.990;2022-12-11T20:50:16;-3.10;99.90
7016;DHT22;3548;48.402;9.990;2022-12-11T20:52:41;-3.20;99.90
7016;DHT22;3548;48.402;9.990;2022-12-11T20:55:07;-3.20;99.90
7016;DHT22;3548;48.402;9.990;2022-12-11T20:57:33;-3.20;99.90
7016;DHT22;3548;48.402;9.990;2022-12-11T20:59:59;-3.20;99.90
7016;DHT22;3548;48.402;9.990;2022-12-11T21:02:25;-3.20;99.90
7016;DHT22;3548;48.402;9.990;2022-12-11T21:04:50;-3.20;99.90
7016;DHT22;3548;48.402;9.990;2022-12-11T21:07:17;-3.10;99.90
7016;DHT22;3548;48.402;9.990;2022-12-11T21:09:43;-3.10;99.90
7016;DHT22;3548;48.402;9.990;2022-12-11T21:12:08;-3.10;99.90
7016;DHT22;3548;48.402;9.990;2022-12-11T21:14:34;-3.00;99.90
7016;DHT22;3548;48.402;9.990;2022-12-11T21:17:00;-2.90;99.90
7016;DHT22;3548;48.402;9.990;2022-12-11T21:19:26;-2.90;99.90
7016;DHT22;3548;48.402;9.990;2022-12-11T21:21:51;-2.80;99.90
7016;DHT22;3548;48.402;9.990;2022-12-11T21:24:23;-2.70;99.90
7016;DHT22;3548;48.402;9.990;2022-12-11T21:26:51;-2.60;99.90
7016;DHT22;3548;48.402;9.990;2022-12-11T21:29:17;-2.60;99.90
7016;DHT22;3548;48.402;9.990;2022-12-11T21:31:43;-2.60;99.90
7016;DHT22;3548;48.402;9.990;2022-12-11T21:34:08;-2.70;99.90
7016;DHT22;3548;48.402;9.990;2022-12-11T21:36:35;-2.70;99.90
7016;DHT22;3548;48.402;9.990;2022-12-11T21:39:00;-2.80;99.90
7016;DHT22;3548;48.402;9.990;2022-12-11T21:41:27;-2.90;99.90
7016;DHT22;3548;48.402;9.990;2022-12-11T21:43:55;-2.90;99.90
7016;DHT22;3548;48.402;9.990;2022-12-11T21:46:24;-3.00;99.90
7016;DHT22;3548;48.402;9.990;2022-12-11T21:48:50;-3.00;99.90
7016;DHT22;3548;48.402;9.990;2022-12-11T21:51:29;-3.10;99.90
7016;DHT22;3548;48.402;9.990;2022-12-11T21:53:55;-3.10;99.90
7016;DHT22;3548;48.402;9.990;2022-12-11T21:56:23;-3.10;99.90
7016;DHT22;3548;48.402;9.990;2022-12-11T21:58:51;-3.20;99.90
7016;DHT22;3548;48.402;9.990;2022-12-11T22:01:24;-3.20;99.90
7016;DHT22;3548;48.402;9.990;2022-12-11T22:03:52;-3.30;99.90
7016;DHT22;3548;48.402;9.990;2022-12-11T22:06:19;-3.40;99.90
7016;DHT22;3548;48.402;9.990;2022-12-11T22:08:45;-3.40;99.90
7016;DHT22;3548;48.402;9.990;2022-12-11T22:11:14;-3.40;99.90
7016;DHT22;3548;48.402;9.990;2022-12-11T22:13:40;-3.40;99.90
7016;DHT22;3548;48.402;9.990;2022-12-11T22:16:05;-3.40;99.90
7016;DHT22;3548;48.402;9.990;2022-12-11T22:18:31;-3.40;99.90
7016;DHT22;3548;48.402;9.990;2022-12-11T22:20:59;-3.40;99.90
7016;DHT22;3548;48.402;9.990;2022-12-11T22:23:25;-3.40;99.90
7016;DHT22;3548;48.402;9.990;2022-12-11T22:25:51;-3.40;99.90
7016;DHT22;3548;48.402;9.990;2022-12-11T22:28:17;-3.30;99.90
7016;DHT22;3548;48.402;9.990;2022-12-11T22:30:43;-3.20;99.90
7016;DHT22;3548;48.402;9.990;2022-12-11T22:33:09;-3.20;99.90
7016;DHT22;3548;48.402;9.990;2022-12-11T22:35:35;-3.20;99.90
7016;DHT22;3548;48.402;9.990;2022-12-11T22:38:01;-3.10;99.90
7016;DHT22;3548;48.402;9.990;2022-12-11T22:40:27;-3.10;99.90
7016;DHT22;3548;48.402;9.990;2022-12-11T22:42:54;-3.10;99.90
7016;DHT22;3548;48.402;9.990;2022-12-11T22:45:20;-3.10;99.90
7016;DHT22;3548;48.402;9.990;2022-12-11T22:47:45;-3.10;99.90
7016;DHT22;3548;48.402;9.990;2022-12-11T22:50:12;-3.10;99.90
7016;DHT22;3548;48.402;9.990;2022-12-11T22:52:38;-3.10;99.90
7016;DHT22;3548;48.402;9.990;2022-12-11T22:55:04;-3.10;99.90
7016;DHT22;3548;48.402;9.990;2022-12-11T22:57:30;-3.20;99.90
7016;DHT22;3548;48.402;9.990;2022-12-11T22:59:56;-3.10;99.90
7016;DHT22;3548;48.402;9.990;2022-12-11T23:02:23;-3.10;99.90
7016;DHT22;3548;48.402;9.990;2022-12-11T23:04:49;-3.10;99.90
7016;DHT22;3548;48.402;9.990;2022-12-11T23:07:14;-3.00;99.90
7016;DHT22;3548;48.402;9.990;2022-12-11T23:09:40;-3.00;99.90
7016;DHT22;3548;48.402;9.990;2022-12-11T23:12:06;-3.00;99.90
7016;DHT22;3548;48.402;9.990;2022-12-11T23:14:32;-3.00;99.90
7016;DHT22;3548;48.402;9.990;2022-12-11T23:16:58;-3.00;99.90
7016;DHT22;3548;48.402;9.990;2022-12-11T23:19:23;-2.90;99.90
7016;DHT22;3548;48.402;9.990;2022-12-11T23:21:49;-2.90;99.90
7016;DHT22;3548;48.402;9.990;2022-12-11T23:24:15;-2.90;99.90
7016;DHT22;3548;48.402;9.990;2022-12-11T23:26:41;-2.90;99.90
7016;DHT22;3548;48.402;9.990;2022-12-11T23:29:08;-2.90;99.90
7016;DHT22;3548;48.402;9.990;2022-12-11T23:31:34;-2.90;99.90
7016;DHT22;3548;48.402;9.990;2022-12-11T23:33:59;-2.90;99.90
7016;DHT22;3548;48.402;9.990;2022-12-11T23:36:26;-2.90;99.90
7016;DHT22;3548;48.402;9.990;2022-12-11T23:38:52;-2.90;99.90
7016;DHT22;3548;48.402;9.990;2022-12-11T23:41:19;-3.00;99.90
7016;DHT22;3548;48.402;9.990;2022-12-11T23:43:44;-3.00;99.90
7016;DHT22;3548;48.402;9.990;2022-12-11T23:46:18;-3.00;99.90
7016;DHT22;3548;48.402;9.990;2022-12-11T23:48:44;-2.90;99.90
7016;DHT22;3548;48.402;9.990;2022-12-11T23:51:15;-2.90;99.90
7016;DHT22;3548;48.402;9.990;2022-12-11T23:53:42;-2.90;99.90
7016;DHT22;3548;48.402;9.990;2022-12-11T23:56:11;-2.90;99.90
7016;DHT22;3548;48.402;9.990;2022-12-11T23:58:38;-2.80;99.90
